sensor_id;sensor_type;location;lat;lon;timestamp;temperature;humidity
5226;DHT22;2632;51.666;7.146;2023-01-05T00:00:54;11.70;99.90
5226;DHT22;2632;51.666;7.146;2023-01-05T00:03:21;11.70;99.90
5226;DHT22;2632;51.666;7.146;2023-01-05T00:05:48;11.70;99.90
5226;DHT22;2632;51.666;7.146;2023-01-05T00:08:14;11.70;99.90
5226;DHT22;2632;51.666;7.146;2023-01-05T00:10:41;11.70;99.90
5226;DHT22;2632;51.666;7.146;2023-01-05T00:13:26;11.70;99.90
5226;DHT22;2632;51.666;7.146;2023-01-05T00:16:13;11.70;99.90
5226;DHT22;2632;51.666;7.146;2023-01-05T00:18:58;11.70;99.90
5226;DHT22;2632;51.666;7.146;2023-01-05T00:21:43;11.60;99.90
5226;DHT22;2632;51.666;7.146;2023-01-05T00:24:36;11.60;99.90
5226;DHT22;2632;51.666;7.146;2023-01-05T00:27:03;11.50;99.90
5226;DHT22;2632;51.666;7.146;2023-01-05T00:29:29;11.50;99.90
5226;DHT22;2632;51.666;7.146;2023-01-05T00:31:56;11.50;99.90
5226;DHT22;2632;51.666;7.146;2023-01-05T00:34:23;11.50;99.90
5226;DHT22;2632;51.666;7.146;2023-01-05T00:36:49;11.40;99.90
5226;DHT22;2632;51.666;7.146;2023-01-05T00:39:16;11.40;99.90
5226;DHT22;2632;51.666;7.146;2023-01-05T00:41:42;11.40;99.90
5226;DHT22;2632;51.666;7.146;2023-01-05T00:44:09;11.40;99.90
5226;DHT22;2632;51.666;7.146;2023-01-05T00:46:36;11.40;99.90
5226;DHT22;2632;51.666;7.146;2023-01-05T00:49:02;11.40;99.90
5226;DHT22;2632;51.666;7.146;2023-01-05T00:51:29;11.40;99.90
5226;DHT22;2632;51.666;7.146;2023-01-05T00:53:55;11.40;99.90
5226;DHT22;2632;51.666;7.146;2023-01-05T00:56:22;11.30;99.90
5226;DHT22;2632;51.666;7.146;2023-01-05T00:58:52;11.30;99.90
5226;DHT22;2632;51.666;7.146;2023-01-05T01:01:20;11.20;99.90
5226;DHT22;2632;51.666;7.146;2023-01-05T01:03:47;11.20;99.90
5226;DHT22;2632;51.666;7.146;2023-01-05T01:06:14;11.20;99.90
5226;DHT22;2632;51.666;7.146;2023-01-05T01:08:41;11.10;99.90
5226;DHT22;2632;51.666;7.146;2023-01-05T01:11:08;11.10;99.90
5226;DHT22;2632;51.666;7.146;2023-01-05T01:13:35;11.10;99.90
5226;DHT22;2632;51.666;7.146;2023-01-05T01:16:11;11.10;99.90
5226;DHT22;2632;51.666;7.146;2023-01-05T01:18:39;11.10;99.90
5226;DHT22;2632;51.666;7.146;2023-01-05T01:21:06;11.10;99.90
5226;DHT22;2632;51.666;7.146;2023-01-05T01:23:33;11.10;99.90
5226;DHT22;2632;51.666;7.146;2023-01-05T01:26:04;11.10;99.90
5226;DHT22;2632;51.666;7.146;2023-01-05T01:28:31;11.10;99.90
5226;DHT22;2632;51.666;7.146;2023-01-05T01:30:58;11.10;99.90
5226;DHT22;2632;51.666;7.146;2023-01-05T01:33:25;11.10;99.90
5226;DHT22;2632;51.666;7.146;2023-01-05T01:35:52;11.10;99.90
5226;DHT22;2632;51.666;7.146;2023-01-05T01:38:19;11.10;99.90
5226;DHT22;2632;51.666;7.146;2023-01-05T01:40:46;11.10;99.90
5226;DHT22;2632;51.666;7.146;2023-01-05T01:43:41;11.10;99.90
5226;DHT22;2632;51.666;7.146;2023-01-05T01:46:08;11.10;99.90
5226;DHT22;2632;51.666;7.146;2023-01-05T01:48:35;11.10;99.90
5226;DHT22;2632;51.666;7.146;2023-01-05T01:51:06;11.10;99.90
5226;DHT22;2632;51.666;7.146;2023-01-05T01:53:41;11.10;99.90
5226;DHT22;2632;51.666;7.146;2023-01-05T01:56:12;11.00;99.90
5226;DHT22;2632;51.666;7.146;2023-01-05T01:58:41;11.10;99.90
5226;DHT22;2632;51.666;7.146;2023-01-05T02:01:08;11.10;99.90
5226;DHT22;2632;51.666;7.146;2023-01-05T02:03:36;11.00;99.90
5226;DHT22;2632;51.666;7.146;2023-01-05T02:06:04;11.10;99.90
5226;DHT22;2632;51.666;7.146;2023-01-05T02:08:30;11.10;99.90
5226;DHT22;2632;51.666;7.146;2023-01-05T02:11:16;11.00;99.90
5226;DHT22;2632;51.666;7.146;2023-01-05T02:16:52;11.00;99.90
5226;DHT22;2632;51.666;7.146;2023-01-05T02:28:16;11.10;99.90
5226;DHT22;2632;51.666;7.146;2023-01-05T02:31:20;11.00;99.90
5226;DHT22;2632;51.666;7.146;2023-01-05T02:34:06;11.10;99.90
5226;DHT22;2632;51.666;7.146;2023-01-05T02:39:16;11.10;99.90
5226;DHT22;2632;51.666;7.146;2023-01-05T02:42:23;11.00;99.90
5226;DHT22;2632;51.666;7.146;2023-01-05T02:44:49;11.00;99.90
5226;DHT22;2632;51.666;7.146;2023-01-05T02:50:00;11.10;99.90
5226;DHT22;2632;51.666;7.146;2023-01-05T02:52:30;11.00;99.90
5226;DHT22;2632;51.666;7.146;2023-01-05T02:55:05;11.00;99.90
5226;DHT22;2632;51.666;7.146;2023-01-05T02:57:40;11.00;99.90
5226;DHT22;2632;51.666;7.146;2023-01-05T03:00:18;11.00;99.90
5226;DHT22;2632;51.666;7.146;2023-01-05T03:02:47;11.00;99.90
5226;DHT22;2632;51.666;7.146;2023-01-05T03:05:24;11.00;99.90
5226;DHT22;2632;51.666;7.146;2023-01-05T03:07:52;11.00;99.90
5226;DHT22;2632;51.666;7.146;2023-01-05T03:10:46;10.90;99.90
5226;DHT22;2632;51.666;7.146;2023-01-05T03:13:51;10.90;99.90
5226;DHT22;2632;51.666;7.146;2023-01-05T03:16:29;10.80;99.90
5226;DHT22;2632;51.666;7.146;2023-01-05T03:19:02;10.80;99.90
5226;DHT22;2632;51.666;7.146;2023-01-05T03:21:48;10.70;99.90
5226;DHT22;2632;51.666;7.146;2023-01-05T03:24:36;10.70;99.90
5226;DHT22;2632;51.666;7.146;2023-01-05T03:27:22;10.80;99.90
5226;DHT22;2632;51.666;7.146;2023-01-05T03:30:09;10.70;99.90
5226;DHT22;2632;51.666;7.146;2023-01-05T03:33:02;10.80;99.90
5226;DHT22;2632;51.666;7.146;2023-01-05T03:35:51;10.70;99.90
5226;DHT22;2632;51.666;7.146;2023-01-05T03:38:39;10.60;99.90
5226;DHT22;2632;51.666;7.146;2023-01-05T03:41:08;10.50;99.90
5226;DHT22;2632;51.666;7.146;2023-01-05T03:43:38;10.50;99.90
5226;DHT22;2632;51.666;7.146;2023-01-05T03:46:17;10.40;99.90
5226;DHT22;2632;51.666;7.146;2023-01-05T03:48:45;10.40;99.90
5226;DHT22;2632;51.666;7.146;2023-01-05T03:51:14;10.40;99.90
5226;DHT22;2632;51.666;7.146;2023-01-05T03:53:42;10.40;99.90
5226;DHT22;2632;51.666;7.146;2023-01-05T03:56:08;10.40;99.90
5226;DHT22;2632;51.666;7.146;2023-01-05T03:58:35;10.40;99.90
5226;DHT22;2632;51.666;7.146;2023-01-05T04:01:02;10.40;99.90
5226;DHT22;2632;51.666;7.146;2023-01-05T04:03:29;10.40;99.90
5226;DHT22;2632;51.666;7.146;2023-01-05T04:05:58;10.30;99.90
5226;DHT22;2632;51.666;7.146;2023-01-05T04:08:24;10.30;99.90
5226;DHT22;2632;51.666;7.146;2023-01-05T04:10:52;10.30;99.90
5226;DHT22;2632;51.666;7.146;2023-01-05T04:13:19;10.30;99.90
5226;DHT22;2632;51.666;7.146;2023-01-05T04:15:46;10.30;99.90
5226;DHT22;2632;51.666;7.146;2023-01-05T04:18:12;10.20;99.90
5226;DHT22;2632;51.666;7.146;2023-01-05T04:20:39;10.20;99.90
5226;DHT22;2632;51.666;7.146;2023-01-05T04:23:06;10.20;99.90
5226;DHT22;2632;51.666;7.146;2023-01-05T04:25:33;10.20;99.90
5226;DHT22;2632;51.666;7.146;2023-01-05T04:27:59;10.20;99.90
5226;DHT22;2632;51.666;7.146;2023-01-05T04:30:26;10.20;99.90
5226;DHT22;2632;51.666;7.146;2023-01-05T04:32:52;10.20;99.90
5226;DHT22;2632;51.666;7.146;2023-01-05T04:35:19;10.20;99.90
5226;DHT22;2632;51.666;7.146;2023-01-05T04:37:46;10.20;99.90
5226;DHT22;2632;51.666;7.146;2023-01-05T04:40:13;10.20;99.90
5226;DHT22;2632;51.666;7.146;2023-01-05T04:42:39;10.20;99.90
5226;DHT22;2632;51.666;7.146;2023-01-05T04:45:06;10.10;99.90
5226;DHT22;2632;51.666;7.146;2023-01-05T04:47:33;10.20;99.90
5226;DHT22;2632;51.666;7.146;2023-01-05T04:50:00;10.10;99.90
5226;DHT22;2632;51.666;7.146;2023-01-05T04:52:26;10.10;99.90
5226;DHT22;2632;51.666;7.146;2023-01-05T04:54:53;10.10;99.90
5226;DHT22;2632;51.666;7.146;2023-01-05T04:57:20;10.20;99.90
5226;DHT22;2632;51.666;7.146;2023-01-05T04:59:46;10.10;99.90
5226;DHT22;2632;51.666;7.146;2023-01-05T05:02:13;10.20;99.90
5226;DHT22;2632;51.666;7.146;2023-01-05T05:04:40;10.20;99.90
5226;DHT22;2632;51.666;7.146;2023-01-05T05:07:06;10.20;99.90
5226;DHT22;2632;51.666;7.146;2023-01-05T05:09:33;10.20;99.90
5226;DHT22;2632;51.666;7.146;2023-01-05T05:11:59;10.20;99.90
5226;DHT22;2632;51.666;7.146;2023-01-05T05:14:26;10.20;99.90
5226;DHT22;2632;51.666;7.146;2023-01-05T05:16:53;10.20;99.90
5226;DHT22;2632;51.666;7.146;2023-01-05T05:19:19;10.20;99.90
5226;DHT22;2632;51.666;7.146;2023-01-05T05:21:46;10.30;99.90
5226;DHT22;2632;51.666;7.146;2023-01-05T05:24:12;10.30;99.90
5226;DHT22;2632;51.666;7.146;2023-01-05T05:26:39;10.30;99.90
5226;DHT22;2632;51.666;7.146;2023-01-05T05:29:06;10.20;99.90
5226;DHT22;2632;51.666;7.146;2023-01-05T05:31:32;10.30;99.90
5226;DHT22;2632;51.666;7.146;2023-01-05T05:33:59;10.30;99.90
5226;DHT22;2632;51.666;7.146;2023-01-05T05:36:25;10.20;99.90
5226;DHT22;2632;51.666;7.146;2023-01-05T05:38:52;10.20;99.90
5226;DHT22;2632;51.666;7.146;2023-01-05T05:41:19;10.20;99.90
5226;DHT22;2632;51.666;7.146;2023-01-05T05:43:45;10.20;99.90
5226;DHT22;2632;51.666;7.146;2023-01-05T05:46:12;10.10;99.90
5226;DHT22;2632;51.666;7.146;2023-01-05T05:48:39;10.10;99.90
5226;DHT22;2632;51.666;7.146;2023-01-05T05:51:05;10.10;99.90
5226;DHT22;2632;51.666;7.146;2023-01-05T05:53:32;10.10;99.90
5226;DHT22;2632;51.666;7.146;2023-01-05T05:55:59;10.10;99.90
5226;DHT22;2632;51.666;7.146;2023-01-05T05:58:25;10.20;99.90
5226;DHT22;2632;51.666;7.146;2023-01-05T06:00:56;10.20;99.90
5226;DHT22;2632;51.666;7.146;2023-01-05T06:03:23;10.20;99.90
5226;DHT22;2632;51.666;7.146;2023-01-05T06:05:50;10.20;99.90
5226;DHT22;2632;51.666;7.146;2023-01-05T06:08:17;10.20;99.90
5226;DHT22;2632;51.666;7.146;2023-01-05T06:10:43;10.20;99.90
5226;DHT22;2632;51.666;7.146;2023-01-05T06:13:10;10.20;99.90
5226;DHT22;2632;51.666;7.146;2023-01-05T06:15:37;10.20;99.90
5226;DHT22;2632;51.666;7.146;2023-01-05T06:18:03;10.20;99.90
5226;DHT22;2632;51.666;7.146;2023-01-05T06:20:30;10.20;99.90
5226;DHT22;2632;51.666;7.146;2023-01-05T06:22:57;10.20;99.90
5226;DHT22;2632;51.666;7.146;2023-01-05T06:25:23;10.20;99.90
5226;DHT22;2632;51.666;7.146;2023-01-05T06:27:50;10.20;99.90
5226;DHT22;2632;51.666;7.146;2023-01-05T06:30:16;10.20;99.90
5226;DHT22;2632;51.666;7.146;2023-01-05T06:32:43;10.10;99.90
5226;DHT22;2632;51.666;7.146;2023-01-05T06:35:10;10.10;99.90
5226;DHT22;2632;51.666;7.146;2023-01-05T06:37:36;10.10;99.90
5226;DHT22;2632;51.666;7.146;2023-01-05T06:40:03;10.10;99.90
5226;DHT22;2632;51.666;7.146;2023-01-05T06:42:30;10.00;99.90
5226;DHT22;2632;51.666;7.146;2023-01-05T06:44:58;10.00;99.90
5226;DHT22;2632;51.666;7.146;2023-01-05T06:47:24;10.00;99.90
5226;DHT22;2632;51.666;7.146;2023-01-05T06:49:51;10.00;99.90
5226;DHT22;2632;51.666;7.146;2023-01-05T06:52:18;10.00;99.90
5226;DHT22;2632;51.666;7.146;2023-01-05T06:54:44;10.00;99.90
5226;DHT22;2632;51.666;7.146;2023-01-05T06:57:11;10.00;99.90
5226;DHT22;2632;51.666;7.146;2023-01-05T06:59:38;10.00;99.90
5226;DHT22;2632;51.666;7.146;2023-01-05T07:02:07;10.00;99.90
5226;DHT22;2632;51.666;7.146;2023-01-05T07:04:38;10.00;99.90
5226;DHT22;2632;51.666;7.146;2023-01-05T07:07:10;10.00;99.90
5226;DHT22;2632;51.666;7.146;2023-01-05T07:09:37;10.00;99.90
5226;DHT22;2632;51.666;7.146;2023-01-05T07:12:04;10.00;99.90
5226;DHT22;2632;51.666;7.146;2023-01-05T07:14:30;10.00;99.90
5226;DHT22;2632;51.666;7.146;2023-01-05T07:16:57;10.00;99.90
5226;DHT22;2632;51.666;7.146;2023-01-05T07:19:24;10.00;99.90
5226;DHT22;2632;51.666;7.146;2023-01-05T07:21:50;10.00;99.90
5226;DHT22;2632;51.666;7.146;2023-01-05T07:24:22;10.00;99.90
5226;DHT22;2632;51.666;7.146;2023-01-05T07:26:49;10.00;99.90
5226;DHT22;2632;51.666;7.146;2023-01-05T07:29:16;10.00;99.90
5226;DHT22;2632;51.666;7.146;2023-01-05T07:31:42;10.00;99.90
5226;DHT22;2632;51.666;7.146;2023-01-05T07:34:09;10.00;99.90
5226;DHT22;2632;51.666;7.146;2023-01-05T07:36:36;10.00;99.90
5226;DHT22;2632;51.666;7.146;2023-01-05T07:39:03;10.00;99.90
5226;DHT22;2632;51.666;7.146;2023-01-05T07:41:46;10.00;99.90
5226;DHT22;2632;51.666;7.146;2023-01-05T07:44:13;10.00;99.90
5226;DHT22;2632;51.666;7.146;2023-01-05T07:46:43;10.00;99.90
5226;DHT22;2632;51.666;7.146;2023-01-05T07:49:09;10.00;99.90
5226;DHT22;2632;51.666;7.146;2023-01-05T07:51:36;10.00;99.90
5226;DHT22;2632;51.666;7.146;2023-01-05T07:54:02;10.00;99.90
5226;DHT22;2632;51.666;7.146;2023-01-05T07:56:29;10.10;99.90
5226;DHT22;2632;51.666;7.146;2023-01-05T07:58:56;10.10;99.90
5226;DHT22;2632;51.666;7.146;2023-01-05T08:01:22;10.10;99.90
5226;DHT22;2632;51.666;7.146;2023-01-05T08:03:49;10.10;99.90
5226;DHT22;2632;51.666;7.146;2023-01-05T08:06:17;10.10;99.90
5226;DHT22;2632;51.666;7.146;2023-01-05T08:08:45;10.10;99.90
5226;DHT22;2632;51.666;7.146;2023-01-05T08:11:14;10.10;99.90
5226;DHT22;2632;51.666;7.146;2023-01-05T08:13:43;10.10;99.90
5226;DHT22;2632;51.666;7.146;2023-01-05T08:16:29;10.20;99.90
5226;DHT22;2632;51.666;7.146;2023-01-05T08:18:57;10.20;99.90
5226;DHT22;2632;51.666;7.146;2023-01-05T08:21:24;10.20;99.90
5226;DHT22;2632;51.666;7.146;2023-01-05T08:23:51;10.10;99.90
5226;DHT22;2632;51.666;7.146;2023-01-05T08:26:21;10.10;99.90
5226;DHT22;2632;51.666;7.146;2023-01-05T08:28:49;10.20;99.90
5226;DHT22;2632;51.666;7.146;2023-01-05T08:31:20;10.10;99.90
5226;DHT22;2632;51.666;7.146;2023-01-05T08:33:47;10.20;99.90
5226;DHT22;2632;51.666;7.146;2023-01-05T08:36:16;10.20;99.90
5226;DHT22;2632;51.666;7.146;2023-01-05T08:38:45;10.40;99.90
5226;DHT22;2632;51.666;7.146;2023-01-05T08:41:20;10.40;99.90
5226;DHT22;2632;51.666;7.146;2023-01-05T08:43:55;10.40;99.90
5226;DHT22;2632;51.666;7.146;2023-01-05T08:46:24;10.40;99.90
5226;DHT22;2632;51.666;7.146;2023-01-05T08:48:56;10.40;99.90
5226;DHT22;2632;51.666;7.146;2023-01-05T08:51:23;10.40;99.90
5226;DHT22;2632;51.666;7.146;2023-01-05T08:53:50;10.40;99.90
5226;DHT22;2632;51.666;7.146;2023-01-05T08:56:17;10.40;99.90
5226;DHT22;2632;51.666;7.146;2023-01-05T08:58:44;10.40;99.90
5226;DHT22;2632;51.666;7.146;2023-01-05T09:01:16;10.40;99.90
5226;DHT22;2632;51.666;7.146;2023-01-05T09:03:44;10.50;99.90
5226;DHT22;2632;51.666;7.146;2023-01-05T09:06:11;10.50;99.90
5226;DHT22;2632;51.666;7.146;2023-01-05T09:08:39;10.50;99.90
5226;DHT22;2632;51.666;7.146;2023-01-05T09:13:39;10.50;99.90
5226;DHT22;2632;51.666;7.146;2023-01-05T09:16:08;10.50;99.90
5226;DHT22;2632;51.666;7.146;2023-01-05T09:18:35;10.60;99.90
5226;DHT22;2632;51.666;7.146;2023-01-05T09:21:02;10.60;99.90
5226;DHT22;2632;51.666;7.146;2023-01-05T09:23:29;10.60;99.90
5226;DHT22;2632;51.666;7.146;2023-01-05T09:25:56;10.60;99.90
5226;DHT22;2632;51.666;7.146;2023-01-05T09:28:23;10.70;99.90
5226;DHT22;2632;51.666;7.146;2023-01-05T09:30:49;10.70;99.90
5226;DHT22;2632;51.666;7.146;2023-01-05T09:33:16;10.80;99.90
5226;DHT22;2632;51.666;7.146;2023-01-05T09:35:43;10.80;99.90
5226;DHT22;2632;51.666;7.146;2023-01-05T09:38:10;10.70;99.90
5226;DHT22;2632;51.666;7.146;2023-01-05T09:40:40;10.90;99.90
5226;DHT22;2632;51.666;7.146;2023-01-05T09:43:15;11.10;99.90
5226;DHT22;2632;51.666;7.146;2023-01-05T09:45:44;11.30;99.90
5226;DHT22;2632;51.666;7.146;2023-01-05T09:48:13;11.20;99.90
5226;DHT22;2632;51.666;7.146;2023-01-05T09:50:42;11.00;99.90
5226;DHT22;2632;51.666;7.146;2023-01-05T09:53:11;11.00;99.90
5226;DHT22;2632;51.666;7.146;2023-01-05T09:55:40;11.00;99.90
5226;DHT22;2632;51.666;7.146;2023-01-05T09:58:15;11.00;99.90
5226;DHT22;2632;51.666;7.146;2023-01-05T10:01:00;11.00;99.90
5226;DHT22;2632;51.666;7.146;2023-01-05T10:03:30;10.90;99.90
5226;DHT22;2632;51.666;7.146;2023-01-05T10:06:18;11.00;99.90
5226;DHT22;2632;51.666;7.146;2023-01-05T10:08:49;11.00;99.90
5226;DHT22;2632;51.666;7.146;2023-01-05T10:14:23;11.10;99.90
5226;DHT22;2632;51.666;7.146;2023-01-05T10:16:51;11.20;99.90
5226;DHT22;2632;51.666;7.146;2023-01-05T10:19:38;11.20;99.90
5226;DHT22;2632;51.666;7.146;2023-01-05T10:25:18;11.30;99.90
5226;DHT22;2632;51.666;7.146;2023-01-05T10:27:59;11.40;99.90
5226;DHT22;2632;51.666;7.146;2023-01-05T10:30:56;11.50;99.90
5226;DHT22;2632;51.666;7.146;2023-01-05T10:36:53;11.40;99.90
5226;DHT22;2632;51.666;7.146;2023-01-05T10:39:59;11.50;99.90
5226;DHT22;2632;51.666;7.146;2023-01-05T10:45:29;11.70;99.90
5226;DHT22;2632;51.666;7.146;2023-01-05T10:47:57;11.80;99.90
5226;DHT22;2632;51.666;7.146;2023-01-05T10:53:06;11.80;99.90
5226;DHT22;2632;51.666;7.146;2023-01-05T10:55:42;11.70;99.90
5226;DHT22;2632;51.666;7.146;2023-01-05T10:58:27;11.70;99.90
5226;DHT22;2632;51.666;7.146;2023-01-05T11:01:00;11.60;99.90
5226;DHT22;2632;51.666;7.146;2023-01-05T11:03:38;11.50;99.90
5226;DHT22;2632;51.666;7.146;2023-01-05T11:06:28;11.50;99.90
5226;DHT22;2632;51.666;7.146;2023-01-05T11:09:16;11.50;99.90
5226;DHT22;2632;51.666;7.146;2023-01-05T11:11:53;11.50;99.90
5226;DHT22;2632;51.666;7.146;2023-01-05T11:14:20;11.70;99.90
5226;DHT22;2632;51.666;7.146;2023-01-05T11:16:50;11.70;99.90
5226;DHT22;2632;51.666;7.146;2023-01-05T11:19:24;11.80;99.90
5226;DHT22;2632;51.666;7.146;2023-01-05T11:21:51;11.90;99.90
5226;DHT22;2632;51.666;7.146;2023-01-05T11:24:30;12.00;99.90
5226;DHT22;2632;51.666;7.146;2023-01-05T11:27:23;12.00;99.90
5226;DHT22;2632;51.666;7.146;2023-01-05T11:30:22;11.90;99.90
5226;DHT22;2632;51.666;7.146;2023-01-05T11:32:50;11.80;99.90
5226;DHT22;2632;51.666;7.146;2023-01-05T11:35:20;11.90;99.90
5226;DHT22;2632;51.666;7.146;2023-01-05T11:37:47;12.00;99.90
5226;DHT22;2632;51.666;7.146;2023-01-05T11:40:18;12.00;99.90
5226;DHT22;2632;51.666;7.146;2023-01-05T11:42:45;12.00;99.90
5226;DHT22;2632;51.666;7.146;2023-01-05T11:45:21;12.00;99.90
5226;DHT22;2632;51.666;7.146;2023-01-05T11:47:55;12.10;99.90
5226;DHT22;2632;51.666;7.146;2023-01-05T11:50:31;12.10;99.90
5226;DHT22;2632;51.666;7.146;2023-01-05T11:53:00;12.10;99.90
5226;DHT22;2632;51.666;7.146;2023-01-05T11:55:38;12.20;99.90
5226;DHT22;2632;51.666;7.146;2023-01-05T11:58:23;12.20;99.90
5226;DHT22;2632;51.666;7.146;2023-01-05T12:04:09;12.40;99.90
5226;DHT22;2632;51.666;7.146;2023-01-05T12:07:22;12.60;99.90
5226;DHT22;2632;51.666;7.146;2023-01-05T12:15:33;12.10;99.90
5226;DHT22;2632;51.666;7.146;2023-01-05T12:21:43;12.00;99.90
5226;DHT22;2632;51.666;7.146;2023-01-05T12:24:28;12.00;99.90
5226;DHT22;2632;51.666;7.146;2023-01-05T12:27:26;12.10;99.90
5226;DHT22;2632;51.666;7.146;2023-01-05T12:33:47;12.40;99.90
5226;DHT22;2632;51.666;7.146;2023-01-05T12:53:39;12.30;99.90
5226;DHT22;2632;51.666;7.146;2023-01-05T12:56:20;12.30;99.90
5226;DHT22;2632;51.666;7.146;2023-01-05T12:58:59;12.30;99.90
5226;DHT22;2632;51.666;7.146;2023-01-05T13:01:29;12.30;99.90
5226;DHT22;2632;51.666;7.146;2023-01-05T13:04:04;12.50;99.90
5226;DHT22;2632;51.666;7.146;2023-01-05T13:06:39;12.60;99.90
5226;DHT22;2632;51.666;7.146;2023-01-05T13:09:12;12.60;99.90
5226;DHT22;2632;51.666;7.146;2023-01-05T13:11:47;12.70;99.90
5226;DHT22;2632;51.666;7.146;2023-01-05T13:14:19;12.60;99.90
5226;DHT22;2632;51.666;7.146;2023-01-05T13:17:20;12.60;99.90
5226;DHT22;2632;51.666;7.146;2023-01-05T13:20:15;12.50;99.90
5226;DHT22;2632;51.666;7.146;2023-01-05T13:22:45;12.30;99.90
5226;DHT22;2632;51.666;7.146;2023-01-05T13:25:18;12.20;99.90
5226;DHT22;2632;51.666;7.146;2023-01-05T13:27:45;12.20;99.90
5226;DHT22;2632;51.666;7.146;2023-01-05T13:30:21;12.20;99.90
5226;DHT22;2632;51.666;7.146;2023-01-05T13:38:29;12.50;99.90
5226;DHT22;2632;51.666;7.146;2023-01-05T13:41:17;12.50;99.90
5226;DHT22;2632;51.666;7.146;2023-01-05T13:44:21;12.60;99.90
5226;DHT22;2632;51.666;7.146;2023-01-05T13:55:36;12.60;99.90
5226;DHT22;2632;51.666;7.146;2023-01-05T13:58:04;12.50;99.90
5226;DHT22;2632;51.666;7.146;2023-01-05T14:00:38;12.40;99.90
5226;DHT22;2632;51.666;7.146;2023-01-05T14:03:28;12.30;99.90
5226;DHT22;2632;51.666;7.146;2023-01-05T14:05:57;12.50;99.90
5226;DHT22;2632;51.666;7.146;2023-01-05T14:08:31;12.50;99.90
5226;DHT22;2632;51.666;7.146;2023-01-05T14:13:43;12.60;99.90
5226;DHT22;2632;51.666;7.146;2023-01-05T14:19:21;12.60;99.90
5226;DHT22;2632;51.666;7.146;2023-01-05T14:24:41;12.40;99.90
5226;DHT22;2632;51.666;7.146;2023-01-05T14:27:13;12.30;99.90
5226;DHT22;2632;51.666;7.146;2023-01-05T14:32:31;12.20;99.90
5226;DHT22;2632;51.666;7.146;2023-01-05T14:37:52;12.10;99.90
5226;DHT22;2632;51.666;7.146;2023-01-05T14:40:40;12.00;99.90
5226;DHT22;2632;51.666;7.146;2023-01-05T14:43:28;11.90;99.90
5226;DHT22;2632;51.666;7.146;2023-01-05T14:46:10;11.90;99.90
5226;DHT22;2632;51.666;7.146;2023-01-05T14:51:31;11.70;99.90
5226;DHT22;2632;51.666;7.146;2023-01-05T14:54:00;11.80;99.90
5226;DHT22;2632;51.666;7.146;2023-01-05T14:56:36;11.70;99.90
5226;DHT22;2632;51.666;7.146;2023-01-05T14:59:23;11.70;99.90
5226;DHT22;2632;51.666;7.146;2023-01-05T15:02:07;11.60;99.90
5226;DHT22;2632;51.666;7.146;2023-01-05T15:04:40;11.60;99.90
5226;DHT22;2632;51.666;7.146;2023-01-05T15:17:59;11.20;99.90
5226;DHT22;2632;51.666;7.146;2023-01-05T15:32:17;10.80;99.90
5226;DHT22;2632;51.666;7.146;2023-01-05T15:37:45;10.80;99.90
5226;DHT22;2632;51.666;7.146;2023-01-05T15:42:51;10.80;99.90
5226;DHT22;2632;51.666;7.146;2023-01-05T15:47:49;10.70;99.90
5226;DHT22;2632;51.666;7.146;2023-01-05T15:50:22;10.80;99.90
5226;DHT22;2632;51.666;7.146;2023-01-05T15:53:00;10.80;99.90
5226;DHT22;2632;51.666;7.146;2023-01-05T15:55:28;10.80;99.90
5226;DHT22;2632;51.666;7.146;2023-01-05T15:58:01;10.80;99.90
5226;DHT22;2632;51.666;7.146;2023-01-05T16:00:32;10.80;99.90
5226;DHT22;2632;51.666;7.146;2023-01-05T16:02:59;10.70;99.90
5226;DHT22;2632;51.666;7.146;2023-01-05T16:05:28;10.70;99.90
5226;DHT22;2632;51.666;7.146;2023-01-05T16:08:03;10.80;99.90
5226;DHT22;2632;51.666;7.146;2023-01-05T16:10:44;10.70;99.90
5226;DHT22;2632;51.666;7.146;2023-01-05T16:13:26;10.70;99.90
5226;DHT22;2632;51.666;7.146;2023-01-05T16:15:56;10.70;99.90
5226;DHT22;2632;51.666;7.146;2023-01-05T16:18:33;10.70;99.90
5226;DHT22;2632;51.666;7.146;2023-01-05T16:21:16;10.70;99.90
5226;DHT22;2632;51.666;7.146;2023-01-05T16:23:51;10.70;99.90
5226;DHT22;2632;51.666;7.146;2023-01-05T16:26:19;10.70;99.90
5226;DHT22;2632;51.666;7.146;2023-01-05T16:28:45;10.70;99.90
5226;DHT22;2632;51.666;7.146;2023-01-05T16:31:28;10.60;99.90
5226;DHT22;2632;51.666;7.146;2023-01-05T16:34:21;10.60;99.90
5226;DHT22;2632;51.666;7.146;2023-01-05T16:37:17;10.70;99.90
5226;DHT22;2632;51.666;7.146;2023-01-05T16:39:45;10.60;99.90
5226;DHT22;2632;51.666;7.146;2023-01-05T16:42:21;10.70;99.90
5226;DHT22;2632;51.666;7.146;2023-01-05T16:45:16;10.70;99.90
5226;DHT22;2632;51.666;7.146;2023-01-05T16:47:43;10.70;99.90
5226;DHT22;2632;51.666;7.146;2023-01-05T16:52:58;10.60;99.90
5226;DHT22;2632;51.666;7.146;2023-01-05T16:55:30;10.60;99.90
5226;DHT22;2632;51.666;7.146;2023-01-05T16:57:58;10.60;99.90
5226;DHT22;2632;51.666;7.146;2023-01-05T17:02:56;10.60;99.90
5226;DHT22;2632;51.666;7.146;2023-01-05T17:05:26;10.60;99.90
5226;DHT22;2632;51.666;7.146;2023-01-05T17:10:40;10.60;99.90
5226;DHT22;2632;51.666;7.146;2023-01-05T17:15:42;10.60;99.90
5226;DHT22;2632;51.666;7.146;2023-01-05T17:18:15;10.60;99.90
5226;DHT22;2632;51.666;7.146;2023-01-05T17:20:43;10.60;99.90
5226;DHT22;2632;51.666;7.146;2023-01-05T17:25:47;10.60;99.90
5226;DHT22;2632;51.666;7.146;2023-01-05T17:28:14;10.60;99.90
5226;DHT22;2632;51.666;7.146;2023-01-05T17:30:41;10.50;99.90
5226;DHT22;2632;51.666;7.146;2023-01-05T17:33:07;10.50;99.90
5226;DHT22;2632;51.666;7.146;2023-01-05T17:35:35;11.60;99.90
5226;DHT22;2632;51.666;7.146;2023-01-05T17:38:01;10.60;99.90
5226;DHT22;2632;51.666;7.146;2023-01-05T17:40:28;10.60;99.90
5226;DHT22;2632;51.666;7.146;2023-01-05T17:42:55;10.60;99.90
5226;DHT22;2632;51.666;7.146;2023-01-05T17:45:23;10.60;99.90
5226;DHT22;2632;51.666;7.146;2023-01-05T17:47:51;10.60;99.90
5226;DHT22;2632;51.666;7.146;2023-01-05T17:50:21;10.60;99.90
5226;DHT22;2632;51.666;7.146;2023-01-05T17:52:48;10.60;99.90
5226;DHT22;2632;51.666;7.146;2023-01-05T17:55:15;10.60;99.90
5226;DHT22;2632;51.666;7.146;2023-01-05T17:57:42;10.60;99.90
5226;DHT22;2632;51.666;7.146;2023-01-05T18:00:13;10.60;99.90
5226;DHT22;2632;51.666;7.146;2023-01-05T18:02:41;10.50;99.90
5226;DHT22;2632;51.666;7.146;2023-01-05T18:05:09;10.60;99.90
5226;DHT22;2632;51.666;7.146;2023-01-05T18:07:37;10.60;99.90
5226;DHT22;2632;51.666;7.146;2023-01-05T18:10:06;10.50;99.90
5226;DHT22;2632;51.666;7.146;2023-01-05T18:12:38;10.50;99.90
5226;DHT22;2632;51.666;7.146;2023-01-05T18:15:09;10.50;99.90
5226;DHT22;2632;51.666;7.146;2023-01-05T18:17:36;10.50;99.90
5226;DHT22;2632;51.666;7.146;2023-01-05T18:20:04;10.50;99.90
5226;DHT22;2632;51.666;7.146;2023-01-05T18:22:31;10.40;99.90
5226;DHT22;2632;51.666;7.146;2023-01-05T18:24:58;10.40;99.90
5226;DHT22;2632;51.666;7.146;2023-01-05T18:27:24;10.40;99.90
5226;DHT22;2632;51.666;7.146;2023-01-05T18:29:52;10.30;99.90
5226;DHT22;2632;51.666;7.146;2023-01-05T18:32:19;10.20;99.90
5226;DHT22;2632;51.666;7.146;2023-01-05T18:34:45;10.20;99.90
5226;DHT22;2632;51.666;7.146;2023-01-05T18:37:12;10.20;99.90
5226;DHT22;2632;51.666;7.146;2023-01-05T18:39:47;10.20;99.90
5226;DHT22;2632;51.666;7.146;2023-01-05T18:42:13;10.20;99.90
5226;DHT22;2632;51.666;7.146;2023-01-05T18:44:40;10.10;99.90
5226;DHT22;2632;51.666;7.146;2023-01-05T18:47:07;10.10;99.90
5226;DHT22;2632;51.666;7.146;2023-01-05T18:49:34;10.10;99.90
5226;DHT22;2632;51.666;7.146;2023-01-05T18:52:01;10.20;99.90
5226;DHT22;2632;51.666;7.146;2023-01-05T18:54:27;10.20;99.90